createdAt,value
2018-03-29T00:00:54.162Z,99.90
2018-03-29T00:03:21.619Z,99.90
2018-03-29T00:05:49.099Z,99.90
2018-03-29T00:08:16.553Z,99.90
2018-03-29T00:10:44.035Z,99.90
2018-03-29T00:13:11.490Z,99.90
2018-03-29T00:15:38.957Z,99.90
2018-03-29T00:18:06.410Z,99.90
2018-03-29T00:20:33.878Z,99.90
2018-03-29T00:23:01.334Z,99.90
2018-03-29T00:25:28.805Z,99.90
2018-03-29T00:27:56.268Z,99.90
2018-03-29T00:30:24.506Z,99.90
2018-03-29T00:32:51.975Z,99.90
2018-03-29T00:35:19.437Z,99.90
2018-03-29T00:37:46.881Z,99.90
2018-03-29T00:40:14.359Z,99.90
2018-03-29T00:42:41.822Z,99.90
2018-03-29T00:45:09.286Z,99.90
2018-03-29T00:47:37.516Z,99.90
2018-03-29T00:50:04.981Z,99.90
2018-03-29T00:52:32.437Z,99.90
2018-03-29T00:54:59.910Z,99.90
2018-03-29T00:57:27.368Z,99.90
2018-03-29T00:59:54.841Z,99.90
2018-03-29T01:02:23.092Z,99.90
2018-03-29T01:04:50.558Z,99.90
2018-03-29T01:07:18.015Z,99.90
2018-03-29T01:09:45.487Z,99.90
2018-03-29T01:12:12.948Z,99.90
2018-03-29T01:14:40.418Z,99.90
2018-03-29T01:17:07.894Z,99.90
2018-03-29T01:19:35.366Z,99.90
2018-03-29T01:22:02.838Z,99.90
2018-03-29T01:24:30.306Z,99.90
2018-03-29T01:26:57.772Z,99.90
2018-03-29T01:29:25.232Z,99.90
2018-03-29T01:31:52.699Z,99.90
2018-03-29T01:34:20.150Z,99.90
2018-03-29T01:36:47.627Z,99.90
2018-03-29T01:39:15.858Z,99.90
2018-03-29T01:41:43.326Z,99.90
2018-03-29T01:44:10.790Z,99.90
2018-03-29T01:46:38.266Z,99.90
2018-03-29T01:49:06.499Z,99.90
2018-03-29T01:51:33.981Z,99.90
2018-03-29T01:54:02.399Z,99.90
2018-03-29T01:56:29.874Z,99.90
2018-03-29T01:58:57.338Z,99.90
2018-03-29T02:01:24.818Z,99.90
2018-03-29T02:03:52.278Z,99.90
2018-03-29T02:06:19.750Z,99.90
2018-03-29T02:08:47.197Z,99.90
2018-03-29T02:11:14.690Z,99.90
2018-03-29T02:13:42.150Z,99.90
2018-03-29T02:16:09.621Z,99.90
2018-03-29T02:18:37.087Z,99.90
2018-03-29T02:21:04.570Z,99.90
2018-03-29T02:23:32.035Z,99.90
2018-03-29T02:25:59.534Z,99.90
2018-03-29T02:28:27.749Z,99.90
2018-03-29T02:30:55.235Z,99.90
2018-03-29T02:33:22.698Z,99.90
2018-03-29T02:35:50.174Z,99.90
2018-03-29T02:38:17.654Z,99.90
2018-03-29T02:40:45.123Z,99.90
2018-03-29T02:43:12.598Z,99.90
2018-03-29T02:45:40.082Z,99.90
2018-03-29T02:48:07.550Z,99.90
2018-03-29T02:50:35.871Z,99.90
2018-03-29T02:53:03.331Z,99.90
2018-03-29T02:55:30.831Z,99.90
2018-03-29T02:57:58.303Z,99.90
2018-03-29T03:00:26.547Z,99.90
2018-03-29T03:02:54.013Z,99.90
2018-03-29T03:05:21.486Z,99.90
2018-03-29T03:07:49.715Z,99.90
2018-03-29T03:10:17.184Z,99.90
2018-03-29T03:12:44.650Z,99.90
2018-03-29T03:15:12.118Z,99.90
2018-03-29T03:17:39.582Z,99.90
2018-03-29T03:20:07.054Z,99.90
2018-03-29T03:22:35.291Z,99.90
2018-03-29T03:25:02.798Z,99.90
2018-03-29T03:27:30.287Z,99.90
2018-03-29T03:29:57.792Z,99.90
2018-03-29T03:32:25.217Z,99.90
2018-03-29T03:34:52.689Z,99.90
2018-03-29T03:37:20.149Z,99.90
2018-03-29T03:39:47.618Z,99.90
2018-03-29T03:42:15.873Z,99.90
2018-03-29T03:44:43.331Z,99.90
2018-03-29T03:47:11.758Z,99.90
2018-03-29T03:49:39.222Z,99.90
2018-03-29T03:52:06.706Z,99.90
2018-03-29T03:54:34.161Z,99.90
2018-03-29T03:57:01.629Z,99.90
2018-03-29T03:59:29.082Z,99.90
2018-03-29T04:01:57.525Z,99.90
2018-03-29T04:04:24.978Z,99.90
2018-03-29T04:06:52.454Z,99.90
2018-03-29T04:09:19.911Z,99.90
2018-03-29T04:11:47.376Z,99.90
2018-03-29T04:14:15.834Z,99.90
2018-03-29T04:16:43.303Z,99.90
2018-03-29T04:19:10.760Z,99.90
2018-03-29T04:21:43.746Z,99.90
2018-03-29T04:24:11.210Z,99.90
2018-03-29T04:26:38.694Z,99.90
2018-03-29T04:29:06.147Z,99.90
2018-03-29T04:31:33.617Z,99.90
2018-03-29T04:34:02.030Z,99.90
2018-03-29T04:36:30.261Z,99.90
2018-03-29T04:38:57.726Z,99.90
2018-03-29T04:41:25.201Z,99.90
2018-03-29T04:43:52.656Z,99.90
2018-03-29T04:46:22.814Z,99.90
2018-03-29T04:48:50.284Z,99.90
2018-03-29T04:51:17.745Z,99.90
2018-03-29T04:53:45.213Z,99.90
2018-03-29T04:56:12.702Z,99.90
2018-03-29T04:58:40.148Z,99.90
2018-03-29T05:01:07.860Z,99.90
2018-03-29T05:03:35.313Z,99.90
2018-03-29T05:06:02.786Z,99.90
2018-03-29T05:08:30.242Z,99.90
2018-03-29T05:10:57.708Z,99.90
2018-03-29T05:13:25.170Z,99.90
2018-03-29T05:15:52.646Z,99.90
2018-03-29T05:18:20.102Z,99.90
2018-03-29T05:20:47.572Z,99.90
2018-03-29T05:23:15.041Z,99.90
2018-03-29T05:25:46.314Z,99.90
2018-03-29T05:28:13.769Z,99.90
2018-03-29T05:30:41.242Z,99.90
2018-03-29T05:33:08.727Z,99.90
2018-03-29T05:35:36.184Z,99.90
2018-03-29T05:38:03.662Z,99.90
2018-03-29T05:40:31.141Z,99.90
2018-03-29T05:42:58.610Z,99.90
2018-03-29T05:45:26.856Z,99.90
2018-03-29T05:47:54.334Z,99.90
2018-03-29T05:50:21.789Z,99.90
2018-03-29T05:53:08.704Z,99.90
2018-03-29T05:55:49.165Z,99.90
2018-03-29T05:58:17.409Z,99.90
2018-03-29T06:00:50.155Z,99.90
2018-03-29T06:03:17.640Z,99.90
2018-03-29T06:05:45.104Z,99.90
2018-03-29T06:08:12.585Z,99.90
2018-03-29T06:10:40.850Z,99.90
2018-03-29T06:13:08.341Z,99.90
2018-03-29T06:24:19.809Z,99.90
2018-03-29T06:26:47.277Z,99.90
2018-03-29T06:29:14.743Z,99.90
2018-03-29T06:31:42.230Z,99.90
2018-03-29T06:34:09.699Z,99.90
2018-03-29T06:36:37.943Z,99.90
2018-03-29T06:39:06.027Z,99.90
2018-03-29T06:41:33.507Z,99.90
2018-03-29T06:44:00.969Z,99.90
2018-03-29T06:46:29.913Z,99.90
2018-03-29T06:48:57.390Z,99.90
2018-03-29T06:51:24.854Z,99.90
2018-03-29T06:53:52.310Z,99.90
2018-03-29T06:56:19.794Z,99.90
2018-03-29T06:58:48.089Z,99.90
2018-03-29T07:01:15.568Z,99.90
2018-03-29T07:03:43.053Z,99.90
2018-03-29T07:06:10.563Z,99.90
2018-03-29T07:08:38.026Z,99.90
2018-03-29T07:11:05.491Z,99.90
2018-03-29T07:13:32.971Z,99.90
2018-03-29T07:16:00.437Z,99.90
2018-03-29T07:18:27.907Z,99.90
2018-03-29T07:20:55.370Z,99.90
2018-03-29T07:23:22.836Z,99.90
2018-03-29T07:25:50.298Z,99.90
2018-03-29T07:28:17.765Z,99.90
2018-03-29T07:30:45.999Z,99.90
2018-03-29T07:33:13.470Z,99.90
2018-03-29T07:35:40.935Z,99.90
2018-03-29T07:38:08.406Z,99.90
2018-03-29T07:40:38.976Z,99.90
2018-03-29T07:43:06.451Z,99.90
2018-03-29T07:45:33.907Z,99.90
2018-03-29T07:48:01.378Z,99.90
2018-03-29T07:50:28.830Z,99.90
2018-03-29T07:52:56.302Z,99.90
2018-03-29T07:55:23.762Z,99.90
2018-03-29T07:57:51.264Z,99.90
2018-03-29T08:00:18.683Z,99.90
2018-03-29T08:02:46.156Z,99.90
2018-03-29T08:05:13.601Z,99.90
2018-03-29T08:07:41.091Z,99.90
2018-03-29T08:10:09.301Z,99.90
2018-03-29T08:12:36.785Z,99.90
2018-03-29T08:15:04.366Z,99.90
2018-03-29T08:17:32.598Z,99.90
2018-03-29T08:20:00.055Z,99.90
2018-03-29T08:22:27.514Z,99.90
2018-03-29T08:24:54.969Z,99.90
2018-03-29T08:27:22.497Z,99.90
2018-03-29T08:29:49.894Z,99.90
2018-03-29T08:32:17.357Z,99.90
2018-03-29T08:34:44.831Z,99.90
2018-03-29T08:37:12.299Z,99.90
2018-03-29T08:39:40.522Z,99.90
2018-03-29T08:42:07.991Z,99.90
2018-03-29T08:44:35.445Z,99.90
2018-03-29T08:47:02.915Z,99.90
2018-03-29T08:49:30.379Z,99.90
2018-03-29T08:51:57.841Z,99.90
2018-03-29T08:54:25.301Z,99.90
2018-03-29T08:56:52.765Z,99.90
2018-03-29T08:59:20.226Z,99.90
2018-03-29T09:01:48.446Z,99.90
2018-03-29T09:04:15.913Z,99.90
2018-03-29T09:06:43.378Z,99.90
2018-03-29T09:09:10.841Z,99.90
2018-03-29T09:11:38.306Z,99.90
2018-03-29T09:14:05.771Z,99.90
2018-03-29T09:16:33.225Z,99.90
2018-03-29T09:19:00.743Z,99.90
2018-03-29T09:21:28.140Z,99.90
2018-03-29T09:23:55.614Z,99.90
2018-03-29T09:26:23.071Z,99.90
2018-03-29T09:28:50.551Z,99.90
2018-03-29T09:31:18.011Z,99.90
2018-03-29T09:33:46.239Z,99.90
2018-03-29T09:36:13.690Z,99.90
2018-03-29T09:38:41.157Z,99.90
2018-03-29T09:41:08.609Z,99.90
2018-03-29T09:43:36.071Z,99.90
2018-03-29T09:46:03.521Z,99.90
2018-03-29T09:48:30.990Z,99.90
2018-03-29T09:50:58.448Z,99.90
2018-03-29T09:53:25.906Z,99.90
2018-03-29T09:55:53.366Z,99.90
2018-03-29T09:58:20.857Z,99.90
2018-03-29T10:00:48.290Z,99.90
2018-03-29T10:03:15.753Z,94.20
2018-03-29T10:05:43.965Z,85.60
2018-03-29T10:08:11.439Z,85.40
2018-03-29T10:10:38.886Z,83.40
2018-03-29T10:13:06.349Z,82.10
2018-03-29T10:15:33.814Z,80.50
2018-03-29T10:18:01.311Z,83.10
2018-03-29T10:20:28.762Z,80.10
2018-03-29T10:22:56.231Z,83.20
2018-03-29T10:25:24.454Z,84.30
2018-03-29T10:27:51.978Z,84.40
2018-03-29T10:30:19.425Z,85.40
2018-03-29T10:32:46.907Z,83.40
2018-03-29T10:35:14.361Z,81.10
2018-03-29T10:37:41.834Z,82.40
2018-03-29T10:40:09.373Z,79.60
2018-03-29T10:42:36.858Z,82.00
2018-03-29T10:45:04.318Z,83.80
2018-03-29T10:47:31.772Z,86.30
2018-03-29T10:49:59.233Z,89.30
2018-03-29T10:52:26.731Z,91.50
2018-03-29T10:54:54.162Z,92.30
2018-03-29T10:57:21.615Z,90.00
2018-03-29T10:59:49.090Z,91.90
2018-03-29T11:02:16.532Z,91.80
2018-03-29T11:04:44.007Z,89.10
2018-03-29T11:07:11.458Z,80.60
2018-03-29T11:09:38.919Z,74.90
2018-03-29T11:12:06.365Z,72.60
2018-03-29T11:14:33.826Z,67.40
2018-03-29T11:17:01.282Z,62.60
2018-03-29T11:19:28.770Z,61.30
2018-03-29T11:21:56.983Z,60.60
2018-03-29T11:24:24.451Z,60.50
2018-03-29T11:26:51.906Z,60.90
2018-03-29T11:29:19.380Z,63.30
2018-03-29T11:31:46.846Z,52.20
2018-03-29T11:34:14.309Z,53.50
2018-03-29T11:36:41.765Z,50.30
2018-03-29T11:39:09.238Z,50.50
2018-03-29T11:41:37.684Z,46.30
2018-03-29T11:44:05.151Z,46.20
2018-03-29T11:46:32.618Z,42.20
2018-03-29T11:49:00.084Z,45.60
2018-03-29T11:51:28.309Z,38.60
2018-03-29T11:53:55.785Z,38.20
2018-03-29T11:56:23.242Z,32.90
2018-03-29T11:58:50.705Z,29.40
2018-03-29T12:01:18.171Z,33.20
2018-03-29T12:03:45.635Z,30.90
2018-03-29T12:06:13.090Z,34.80
2018-03-29T12:08:40.570Z,38.00
2018-03-29T12:11:08.794Z,33.40
2018-03-29T12:13:36.278Z,33.70
2018-03-29T12:16:03.752Z,34.30
2018-03-29T12:18:31.977Z,40.20
2018-03-29T12:26:45.642Z,38.30
2018-03-29T12:29:13.122Z,37.40
2018-03-29T12:31:44.838Z,42.60
2018-03-29T12:34:12.289Z,48.70
2018-03-29T12:36:39.754Z,56.80
2018-03-29T12:39:08.007Z,67.90
2018-03-29T12:41:36.238Z,95.90
2018-03-29T12:44:03.707Z,96.00
2018-03-29T12:46:31.182Z,99.90
2018-03-29T12:49:02.181Z,99.90
2018-03-29T12:51:29.643Z,99.90
2018-03-29T12:53:57.110Z,99.90
2018-03-29T12:56:36.376Z,99.90
2018-03-29T12:59:04.628Z,99.90
2018-03-29T13:01:32.142Z,99.90
2018-03-29T13:03:59.557Z,99.90
2018-03-29T13:06:27.030Z,99.90
2018-03-29T13:08:55.273Z,99.90
2018-03-29T13:11:22.741Z,99.90
2018-03-29T13:13:50.206Z,99.90
2018-03-29T13:16:18.450Z,99.90
2018-03-29T13:18:45.943Z,99.90
2018-03-29T13:21:13.382Z,99.90
2018-03-29T13:23:40.844Z,99.90
2018-03-29T13:26:08.307Z,99.90
2018-03-29T13:28:36.709Z,99.90
2018-03-29T13:31:04.942Z,99.90
2018-03-29T13:33:32.403Z,99.90
2018-03-29T13:35:59.874Z,99.90
2018-03-29T13:38:27.325Z,99.90
2018-03-29T13:40:54.807Z,99.90
2018-03-29T13:43:23.056Z,99.90
2018-03-29T13:45:50.503Z,99.90
2018-03-29T13:48:17.958Z,99.90
2018-03-29T13:50:45.447Z,99.90
2018-03-29T13:53:13.691Z,77.10
2018-03-29T13:55:41.175Z,76.00
2018-03-29T13:58:09.421Z,82.50
2018-03-29T14:00:36.885Z,83.30
2018-03-29T14:03:04.356Z,84.80
2018-03-29T14:05:31.823Z,74.90
2018-03-29T14:08:00.051Z,73.40
2018-03-29T14:10:27.527Z,73.00
2018-03-29T14:12:54.989Z,67.10
2018-03-29T14:15:22.458Z,77.80
2018-03-29T14:17:49.992Z,74.00
2018-03-29T14:20:18.171Z,75.20
2018-03-29T14:22:45.640Z,75.30
2018-03-29T14:25:13.111Z,82.30
2018-03-29T14:27:41.346Z,72.50
2018-03-29T14:30:08.815Z,72.60
2018-03-29T14:32:36.283Z,65.30
2018-03-29T14:35:03.762Z,65.20
2018-03-29T14:37:31.990Z,64.10
2018-03-29T14:39:59.465Z,63.90
2018-03-29T14:42:26.936Z,64.20
2018-03-29T14:44:55.330Z,62.50
2018-03-29T14:47:23.555Z,60.70
2018-03-29T14:49:52.942Z,61.00
2018-03-29T14:52:20.411Z,61.20
2018-03-29T14:54:47.895Z,60.90
2018-03-29T14:57:15.368Z,71.10
2018-03-29T14:59:42.859Z,61.60
2018-03-29T15:02:10.335Z,62.80
2018-03-29T15:04:37.799Z,56.00
2018-03-29T15:07:05.275Z,49.40
2018-03-29T15:09:39.457Z,48.80
2018-03-29T15:12:10.681Z,48.70
2018-03-29T15:14:57.782Z,48.80
2018-03-29T15:26:04.334Z,51.90
2018-03-29T15:28:31.799Z,50.20
2018-03-29T15:31:00.038Z,51.50
2018-03-29T15:33:27.490Z,51.40
2018-03-29T15:35:54.966Z,50.50
2018-03-29T15:38:22.418Z,49.30
2018-03-29T15:40:49.893Z,49.80
2018-03-29T15:43:17.351Z,44.90
2018-03-29T15:45:44.818Z,50.30
2018-03-29T15:48:13.043Z,54.10
2018-03-29T15:50:40.515Z,54.30
2018-03-29T15:53:07.982Z,46.20
2018-03-29T15:55:35.445Z,45.50
2018-03-29T15:58:02.912Z,44.80
2018-03-29T16:00:30.378Z,39.00
2018-03-29T16:02:58.606Z,38.10
2018-03-29T16:05:26.113Z,37.80
2018-03-29T16:07:53.555Z,34.80
2018-03-29T16:10:21.022Z,35.50
2018-03-29T16:12:49.254Z,38.80
2018-03-29T16:15:16.727Z,38.80
2018-03-29T16:17:44.191Z,38.70
2018-03-29T16:20:11.658Z,38.80
2018-03-29T16:22:39.114Z,37.00
2018-03-29T16:25:06.586Z,33.80
2018-03-29T16:27:34.815Z,35.50
2018-03-29T16:30:02.286Z,35.70
2018-03-29T16:32:29.746Z,37.60
2018-03-29T16:34:57.219Z,39.40
2018-03-29T16:37:24.675Z,38.20
2018-03-29T16:39:52.139Z,36.50
2018-03-29T16:42:19.595Z,37.70
2018-03-29T16:44:47.618Z,37.40
2018-03-29T16:47:25.791Z,39.20
2018-03-29T16:49:54.036Z,39.30
2018-03-29T16:52:21.494Z,39.80
2018-03-29T16:54:48.954Z,42.00
2018-03-29T16:57:16.419Z,41.50
2018-03-29T16:59:43.888Z,40.80
2018-03-29T17:02:11.464Z,40.10
2018-03-29T17:04:40.135Z,43.60
2018-03-29T17:07:08.440Z,43.60
2018-03-29T17:09:43.171Z,45.60
2018-03-29T17:12:12.614Z,45.60
2018-03-29T17:14:40.084Z,42.70
2018-03-29T17:17:07.543Z,42.90
2018-03-29T17:19:35.008Z,45.60
2018-03-29T17:22:02.489Z,43.10
2018-03-29T17:24:29.955Z,44.10
2018-03-29T17:26:57.441Z,45.00
2018-03-29T17:29:25.671Z,43.60
2018-03-29T17:31:53.139Z,43.70
2018-03-29T17:34:20.596Z,44.60
2018-03-29T17:36:48.070Z,44.00
2018-03-29T17:39:16.296Z,44.30
2018-03-29T17:41:43.763Z,44.40
2018-03-29T17:44:11.231Z,43.40
2018-03-29T17:46:38.698Z,43.70
2018-03-29T17:49:06.158Z,44.30
2018-03-29T17:51:33.631Z,45.40
2018-03-29T17:54:01.871Z,47.80
2018-03-29T17:56:29.339Z,47.80
2018-03-29T17:58:56.795Z,49.50
2018-03-29T18:01:24.268Z,49.80
2018-03-29T18:03:51.723Z,47.90
2018-03-29T18:06:19.195Z,48.30
2018-03-29T18:08:47.423Z,50.30
2018-03-29T18:11:14.901Z,50.60
2018-03-29T18:13:42.355Z,51.60
2018-03-29T18:16:09.835Z,53.90
2018-03-29T18:18:37.341Z,56.60
2018-03-29T18:21:04.824Z,60.20
2018-03-29T18:23:32.291Z,62.80
2018-03-29T18:25:59.754Z,65.10
2018-03-29T18:28:27.216Z,67.10
2018-03-29T18:30:54.687Z,66.90
2018-03-29T18:33:22.923Z,67.20
2018-03-29T18:35:50.390Z,67.00
2018-03-29T18:38:17.850Z,68.80
2018-03-29T18:40:45.328Z,70.00
2018-03-29T18:43:12.785Z,72.50
2018-03-29T18:45:40.408Z,79.70
2018-03-29T18:48:07.886Z,88.20
2018-03-29T18:50:35.364Z,91.50
2018-03-29T18:53:02.810Z,95.00
2018-03-29T18:55:30.288Z,98.70
2018-03-29T18:57:58.514Z,99.90
2018-03-29T19:00:26.002Z,99.90
2018-03-29T19:02:53.466Z,99.90
2018-03-29T19:05:20.919Z,99.90
2018-03-29T19:07:48.389Z,99.80
2018-03-29T19:10:16.609Z,99.90
2018-03-29T19:12:44.835Z,99.90
2018-03-29T19:15:13.076Z,99.90
2018-03-29T19:17:40.535Z,99.90
2018-03-29T19:20:07.991Z,99.90
2018-03-29T19:22:35.459Z,99.90
2018-03-29T19:25:02.928Z,99.90
2018-03-29T19:27:30.398Z,99.90
2018-03-29T19:29:58.628Z,99.90
2018-03-29T19:32:26.105Z,99.90
2018-03-29T19:34:53.559Z,99.90
2018-03-29T19:37:21.022Z,99.90
2018-03-29T19:39:48.493Z,99.90
2018-03-29T19:42:15.950Z,99.90
2018-03-29T19:44:43.405Z,99.90
2018-03-29T19:47:10.874Z,99.90
2018-03-29T19:49:39.100Z,99.90
2018-03-29T19:52:06.566Z,99.90
2018-03-29T19:54:34.046Z,99.90
2018-03-29T19:57:01.903Z,99.90
2018-03-29T19:59:29.366Z,99.90
2018-03-29T20:01:56.834Z,99.90
2018-03-29T20:04:25.072Z,99.90
2018-03-29T20:06:52.546Z,99.90
2018-03-29T20:09:20.008Z,99.90
2018-03-29T20:11:47.470Z,99.90
2018-03-29T20:14:14.950Z,99.90
2018-03-29T20:16:43.202Z,99.90
2018-03-29T20:19:10.673Z,99.90
2018-03-29T20:21:38.146Z,99.90
2018-03-29T20:24:06.380Z,99.90
2018-03-29T20:26:33.843Z,99.90
2018-03-29T20:29:01.303Z,99.90
2018-03-29T20:31:28.779Z,99.90
2018-03-29T20:33:56.234Z,99.90
2018-03-29T20:36:24.478Z,99.90
2018-03-29T20:38:51.936Z,99.90
2018-03-29T20:41:19.405Z,99.90
2018-03-29T20:43:46.882Z,99.90
2018-03-29T20:46:14.339Z,99.90
2018-03-29T20:48:41.815Z,99.90
2018-03-29T20:51:10.044Z,99.90
2018-03-29T20:53:37.510Z,99.90
2018-03-29T20:56:04.974Z,99.90
2018-03-29T20:58:32.450Z,99.90
2018-03-29T21:01:00.702Z,99.90
2018-03-29T21:03:28.181Z,99.90
2018-03-29T21:05:55.638Z,99.90
2018-03-29T21:08:23.874Z,99.90
2018-03-29T21:10:51.331Z,99.90
2018-03-29T21:13:18.798Z,99.90
2018-03-29T21:15:46.255Z,99.90
2018-03-29T21:18:13.723Z,99.90
2018-03-29T21:20:41.902Z,99.90
2018-03-29T21:23:09.371Z,99.90
2018-03-29T21:25:37.595Z,99.90
2018-03-29T21:28:05.058Z,99.90
2018-03-29T21:30:32.523Z,99.90
2018-03-29T21:33:00.008Z,99.90
2018-03-29T21:35:27.459Z,99.90
2018-03-29T21:37:54.927Z,99.90
2018-03-29T21:40:22.405Z,99.90
2018-03-29T21:42:49.887Z,99.90
2018-03-29T21:45:17.340Z,99.90
2018-03-29T21:47:44.823Z,99.90
2018-03-29T21:50:12.292Z,99.90
2018-03-29T21:52:39.766Z,99.90
2018-03-29T21:55:07.235Z,99.90
2018-03-29T21:57:35.483Z,99.90
2018-03-29T22:00:02.956Z,99.90
2018-03-29T22:02:31.210Z,99.90
2018-03-29T22:04:58.685Z,99.90
2018-03-29T22:07:26.171Z,99.90
2018-03-29T22:09:57.044Z,99.90
2018-03-29T22:12:24.519Z,99.90
2018-03-29T22:14:52.019Z,99.90
2018-03-29T22:17:19.470Z,99.90
2018-03-29T22:19:47.717Z,99.90
2018-03-29T22:22:15.179Z,99.90
2018-03-29T22:24:42.654Z,99.90
2018-03-29T22:27:10.904Z,99.90
2018-03-29T22:29:38.381Z,99.90
2018-03-29T22:32:05.875Z,99.90
2018-03-29T22:34:33.358Z,99.90
2018-03-29T22:37:00.833Z,99.90
2018-03-29T22:39:28.312Z,99.90
2018-03-29T22:41:55.807Z,99.90
2018-03-29T22:44:23.291Z,99.90
2018-03-29T22:46:50.770Z,99.90
2018-03-29T22:49:18.262Z,99.90
2018-03-29T22:51:45.736Z,99.90
2018-03-29T22:54:13.214Z,99.90
2018-03-29T22:56:40.708Z,99.90
2018-03-29T22:59:08.198Z,99.90
2018-03-29T23:01:36.533Z,99.90
2018-03-29T23:04:04.014Z,99.90
2018-03-29T23:06:32.257Z,99.90
2018-03-29T23:08:59.755Z,99.90
2018-03-29T23:11:28.004Z,99.90
2018-03-29T23:13:55.490Z,99.90
2018-03-29T23:16:22.973Z,99.90
2018-03-29T23:18:50.470Z,99.90
2018-03-29T23:21:17.937Z,99.90
2018-03-29T23:23:45.414Z,99.90
2018-03-29T23:26:13.658Z,99.90
2018-03-29T23:28:41.193Z,99.90
2018-03-29T23:31:08.662Z,99.90
2018-03-29T23:33:36.151Z,99.90
2018-03-29T23:36:04.391Z,99.90
2018-03-29T23:38:31.886Z,99.90
2018-03-29T23:41:00.128Z,99.90
2018-03-29T23:43:27.619Z,99.90
2018-03-29T23:45:55.091Z,99.90
2018-03-29T23:48:23.335Z,99.90
2018-03-29T23:50:50.915Z,99.90
2018-03-29T23:53:19.171Z,99.90
2018-03-29T23:55:46.650Z,99.90
2018-03-29T23:58:17.845Z,99.90
